createdAt,value
2023-01-29T00:01:35.687Z,97694.06
2023-01-29T00:04:02.441Z,97695.81
2023-01-29T00:06:29.150Z,97702.75
2023-01-29T00:08:55.815Z,97706.19
2023-01-29T00:11:24.082Z,97707.06
2023-01-29T00:13:51.838Z,97717.44
2023-01-29T00:16:19.166Z,97707.06
2023-01-29T00:18:46.005Z,97715.69
2023-01-29T00:21:15.809Z,97710.50
2023-01-29T00:23:43.114Z,97714.84
2023-01-29T00:26:10.793Z,97721.75
2023-01-29T00:28:37.520Z,97718.28
2023-01-29T00:31:12.093Z,97720.03
2023-01-29T00:33:38.820Z,97721.75
2023-01-29T00:36:06.857Z,97716.56
2023-01-29T00:38:34.620Z,97713.09
2023-01-29T00:41:32.915Z,97714.84
2023-01-29T00:44:19.337Z,97726.09
2023-01-29T00:46:46.364Z,97711.38
2023-01-29T00:49:13.020Z,97716.56
2023-01-29T00:51:39.933Z,97719.16
2023-01-29T00:54:06.967Z,97722.63
2023-01-29T00:56:37.482Z,97726.94
2023-01-29T00:59:04.846Z,97730.38
2023-01-29T01:01:50.291Z,97728.66
2023-01-29T01:04:16.939Z,97726.94
2023-01-29T01:06:43.881Z,97722.63
2023-01-29T01:09:32.811Z,97727.81
2023-01-29T01:12:01.967Z,97732.13
2023-01-29T01:14:28.582Z,97737.31
2023-01-29T01:16:55.287Z,97744.25
2023-01-29T01:19:21.911Z,97738.19
2023-01-29T01:21:48.574Z,97741.63
2023-01-29T01:24:15.438Z,97743.38
2023-01-29T01:26:44.700Z,97735.59
2023-01-29T01:29:11.444Z,97738.19
2023-01-29T01:31:38.187Z,97736.47
2023-01-29T01:34:04.924Z,97742.50
2023-01-29T01:36:32.463Z,97737.31
2023-01-29T01:38:59.236Z,97734.72
2023-01-29T01:41:25.876Z,97745.97
2023-01-29T01:43:56.519Z,97738.16
2023-01-29T01:46:24.360Z,97734.72
2023-01-29T01:48:57.828Z,97732.13
2023-01-29T01:51:28.906Z,97735.59
2023-01-29T01:54:11.066Z,97736.47
2023-01-29T01:56:43.020Z,97733.00
2023-01-29T01:59:17.246Z,97737.31
2023-01-29T02:01:50.196Z,97732.13
2023-01-29T02:04:39.461Z,97741.66
2023-01-29T02:07:32.160Z,97733.88
2023-01-29T02:10:15.738Z,97733.88
2023-01-29T02:12:44.328Z,97738.19
2023-01-29T02:15:12.231Z,97740.75
2023-01-29T02:17:38.985Z,97745.97
2023-01-29T02:20:27.959Z,97747.69
2023-01-29T02:22:55.427Z,97744.25
2023-01-29T02:25:42.656Z,97746.81
2023-01-29T02:28:09.240Z,97750.28
2023-01-29T02:30:41.826Z,97750.28
2023-01-29T02:33:22.340Z,97755.47
2023-01-29T02:36:12.388Z,97754.59
2023-01-29T02:39:04.583Z,97747.66
2023-01-29T02:41:53.933Z,97758.94
2023-01-29T02:44:42.362Z,97758.94
2023-01-29T02:47:09.041Z,97756.34
2023-01-29T02:49:43.725Z,97754.59
2023-01-29T02:52:18.684Z,97745.94
2023-01-29T02:54:55.661Z,97751.13
2023-01-29T02:57:29.771Z,97752.88
2023-01-29T03:00:02.360Z,97759.78
2023-01-29T03:02:35.043Z,97758.91
2023-01-29T03:05:06.378Z,97760.59
2023-01-29T03:07:42.903Z,97769.25
2023-01-29T03:10:21.717Z,97772.69
2023-01-29T03:12:55.721Z,97772.72
2023-01-29T03:15:30.185Z,97769.25
2023-01-29T03:18:08.966Z,97775.31
2023-01-29T03:20:58.559Z,97775.31
2023-01-29T03:23:50.294Z,97771.84
2023-01-29T03:26:38.877Z,97777.03
2023-01-29T03:29:26.068Z,97769.25
2023-01-29T03:32:05.446Z,97768.41
2023-01-29T03:34:52.085Z,97776.16
2023-01-29T03:37:27.234Z,97768.34
2023-01-29T03:39:54.733Z,97770.09
2023-01-29T03:42:31.653Z,97774.41
2023-01-29T03:45:23.884Z,97788.22
2023-01-29T03:47:56.311Z,97789.94
2023-01-29T03:50:22.908Z,97785.63
2023-01-29T03:52:55.869Z,97794.22
2023-01-29T03:55:31.903Z,97793.41
2023-01-29T03:58:00.449Z,97789.13
2023-01-29T04:00:32.132Z,97792.56
2023-01-29T04:03:13.610Z,97790.81
2023-01-29T04:05:44.935Z,97796.88
2023-01-29T04:08:17.287Z,97793.44
2023-01-29T04:10:46.291Z,97790.84
2023-01-29T04:13:15.060Z,97790.84
2023-01-29T04:15:48.265Z,97791.69
2023-01-29T04:18:15.237Z,97793.44
2023-01-29T04:20:42.416Z,97790.78
2023-01-29T04:23:21.454Z,97795.13
2023-01-29T04:26:08.126Z,97795.97
2023-01-29T04:28:58.772Z,97801.97
2023-01-29T04:31:33.185Z,97806.25
2023-01-29T04:34:16.015Z,97810.47
2023-01-29T04:37:07.724Z,97810.44
2023-01-29T04:39:55.407Z,97813.06
2023-01-29T04:42:47.571Z,97811.38
2023-01-29T04:45:20.277Z,97810.47
2023-01-29T04:48:14.874Z,97809.63
2023-01-29T04:51:03.601Z,97818.16
2023-01-29T04:53:58.433Z,97823.44
2023-01-29T04:57:12.939Z,97822.66
2023-01-29T04:59:45.896Z,97821.78
2023-01-29T05:02:13.348Z,97807.97
2023-01-29T05:04:43.494Z,97813.19
2023-01-29T05:07:13.780Z,97821.81
2023-01-29T05:09:44.120Z,97828.69
2023-01-29T05:12:12.966Z,97831.22
2023-01-29T05:14:43.433Z,97826.94
2023-01-29T05:17:15.846Z,97828.63
2023-01-29T05:19:42.682Z,97828.59
2023-01-29T05:22:12.545Z,97828.63
2023-01-29T05:24:39.170Z,97829.50
2023-01-29T05:27:24.430Z,97837.22
2023-01-29T05:29:51.061Z,97838.94
2023-01-29T05:32:17.791Z,97835.47
2023-01-29T05:34:44.372Z,97839.81
2023-01-29T05:37:10.994Z,97843.31
2023-01-29T05:39:37.633Z,97844.16
2023-01-29T05:42:04.437Z,97851.91
2023-01-29T05:44:31.120Z,97859.56
2023-01-29T05:46:57.760Z,97858.75
2023-01-29T05:49:24.477Z,97849.22
2023-01-29T05:51:51.131Z,97853.44
2023-01-29T05:54:17.752Z,97865.53
2023-01-29T05:56:44.395Z,97862.09
2023-01-29T05:59:12.132Z,97865.53
2023-01-29T06:01:38.828Z,97866.44
2023-01-29T06:04:05.422Z,97872.44
2023-01-29T06:06:32.053Z,97875.88
2023-01-29T06:08:58.619Z,97882.66
2023-01-29T06:11:25.627Z,97884.34
2023-01-29T06:13:52.293Z,97886.88
2023-01-29T06:16:19.183Z,97892.09
2023-01-29T06:18:45.813Z,97887.69
2023-01-29T06:21:13.697Z,97889.41
2023-01-29T06:23:40.788Z,97898.94
2023-01-29T06:26:11.532Z,97901.56
2023-01-29T06:28:38.608Z,97898.06
2023-01-29T06:33:53.228Z,97903.31
2023-01-29T06:36:19.907Z,97913.69
2023-01-29T06:38:47.389Z,97909.50
2023-01-29T06:41:18.187Z,97907.75
2023-01-29T06:43:45.944Z,97907.72
2023-01-29T06:46:12.796Z,97913.75
2023-01-29T06:48:39.875Z,97908.56
2023-01-29T06:51:11.020Z,97911.13
2023-01-29T06:53:38.710Z,97909.53
2023-01-29T06:56:06.448Z,97913.88
2023-01-29T06:58:33.175Z,97913.78
2023-01-29T07:01:08.275Z,97912.06
2023-01-29T07:03:34.979Z,97908.56
2023-01-29T07:06:02.393Z,97914.56
2023-01-29T07:08:29.132Z,97913.81
2023-01-29T07:11:01.091Z,97913.00
2023-01-29T07:13:28.075Z,97906.06
2023-01-29T07:15:54.873Z,97917.41
2023-01-29T07:18:21.578Z,97906.09
2023-01-29T07:20:48.186Z,97908.66
2023-01-29T07:23:15.741Z,97904.34
2023-01-29T07:25:42.483Z,97908.78
2023-01-29T07:28:09.548Z,97910.56
2023-01-29T07:30:36.759Z,97920.91
2023-01-29T07:33:07.439Z,97915.78
2023-01-29T07:35:39.688Z,97912.31
2023-01-29T07:38:08.410Z,97908.88
2023-01-29T07:40:35.333Z,97911.53
2023-01-29T07:43:04.514Z,97915.84
2023-01-29T07:45:31.726Z,97913.28
2023-01-29T07:47:58.385Z,97917.66
2023-01-29T07:50:27.098Z,97918.50
2023-01-29T07:52:57.102Z,97920.25
2023-01-29T07:55:24.312Z,97910.72
2023-01-29T07:58:02.071Z,97913.25
2023-01-29T08:00:30.225Z,97910.69
2023-01-29T08:03:09.578Z,97904.72
2023-01-29T08:05:36.779Z,97903.00
2023-01-29T08:08:07.527Z,97900.47
2023-01-29T08:10:36.249Z,97903.09
2023-01-29T08:13:03.801Z,97897.06
2023-01-29T08:15:30.534Z,97901.41
2023-01-29T08:20:43.905Z,97907.50
2023-01-29T08:23:14.852Z,97911.00
2023-01-29T08:25:41.708Z,97915.28
2023-01-29T08:28:08.818Z,97918.78
2023-01-29T08:30:37.606Z,97919.66
2023-01-29T08:33:07.545Z,97918.78
2023-01-29T08:35:34.259Z,97916.19
2023-01-29T08:38:03.534Z,97910.19
2023-01-29T08:40:34.435Z,97914.59
2023-01-29T08:43:09.655Z,97911.13
2023-01-29T08:45:40.371Z,97917.19
2023-01-29T08:48:07.621Z,97917.22
2023-01-29T08:50:35.138Z,97924.97
2023-01-29T08:53:09.675Z,97912.03
2023-01-29T08:55:37.561Z,97915.53
2023-01-29T08:58:05.964Z,97917.28
2023-01-29T09:00:34.116Z,97919.88
2023-01-29T09:03:04.006Z,97916.38
2023-01-29T09:05:31.277Z,97918.97
2023-01-29T09:07:58.363Z,97921.56
2023-01-29T09:10:25.646Z,97912.91
2023-01-29T09:12:52.248Z,97922.50
2023-01-29T09:15:19.457Z,97917.31
2023-01-29T09:17:46.120Z,97923.38
2023-01-29T09:20:15.763Z,97919.94
2023-01-29T09:22:42.446Z,97924.25
2023-01-29T09:25:10.877Z,97919.91
2023-01-29T09:27:41.007Z,97917.34
2023-01-29T09:30:10.338Z,97916.44
2023-01-29T09:32:52.777Z,97916.47
2023-01-29T09:35:22.058Z,97906.94
2023-01-29T09:37:52.866Z,97904.31
2023-01-29T09:40:43.760Z,97905.19
2023-01-29T09:43:45.741Z,97910.41
2023-01-29T09:46:20.686Z,97911.25
2023-01-29T09:48:50.480Z,97907.78
2023-01-29T09:51:31.674Z,97896.50
2023-01-29T09:54:07.874Z,97893.88
2023-01-29T09:56:44.722Z,97892.16
2023-01-29T09:59:14.408Z,97892.16
2023-01-29T10:02:06.386Z,97884.38
2023-01-29T10:04:39.311Z,97884.38
2023-01-29T10:07:11.728Z,97886.09
2023-01-29T10:09:59.842Z,97888.69
2023-01-29T10:13:00.145Z,97883.50
2023-01-29T10:15:53.111Z,97883.47
2023-01-29T10:18:32.040Z,97871.34
2023-01-29T10:21:17.142Z,97872.19
2023-01-29T10:24:13.376Z,97865.25
2023-01-29T10:26:40.944Z,97860.88
2023-01-29T10:29:08.335Z,97867.81
2023-01-29T10:31:40.350Z,97860.00
2023-01-29T10:34:16.175Z,97861.69
2023-01-29T10:36:47.030Z,97864.25
2023-01-29T10:39:22.075Z,97849.47
2023-01-29T10:42:06.856Z,97854.69
2023-01-29T10:44:42.509Z,97845.91
2023-01-29T10:47:25.052Z,97840.72
2023-01-29T10:50:25.671Z,97835.53
2023-01-29T10:53:35.910Z,97838.94
2023-01-29T10:56:25.025Z,97833.81
2023-01-29T10:59:33.469Z,97831.13
2023-01-29T11:02:00.567Z,97832.84
2023-01-29T11:04:28.878Z,97827.66
2023-01-29T11:06:59.452Z,97835.50
2023-01-29T11:09:39.405Z,97838.06
2023-01-29T11:12:09.811Z,97840.75
2023-01-29T11:14:47.661Z,97840.81
2023-01-29T11:17:23.493Z,97837.25
2023-01-29T11:19:52.143Z,97840.72
2023-01-29T11:22:21.892Z,97837.16
2023-01-29T11:25:10.561Z,97837.22
2023-01-29T11:27:57.228Z,97844.19
2023-01-29T11:30:27.938Z,97838.91
2023-01-29T11:33:18.588Z,97841.50
2023-01-29T11:35:45.537Z,97840.66
2023-01-29T11:38:33.571Z,97853.69
2023-01-29T11:41:19.143Z,97852.91
2023-01-29T11:43:45.780Z,97859.91
2023-01-29T11:46:17.864Z,97852.94
2023-01-29T11:48:51.689Z,97855.59
2023-01-29T11:51:25.691Z,97847.78
2023-01-29T11:53:58.633Z,97851.25
2023-01-29T11:56:41.126Z,97849.50
2023-01-29T11:59:30.403Z,97848.63
2023-01-29T12:02:22.627Z,97845.19
2023-01-29T12:04:51.018Z,97838.28
2023-01-29T12:07:19.165Z,97840.88
2023-01-29T12:09:52.807Z,97842.59
2023-01-29T12:12:30.237Z,97845.16
2023-01-29T12:15:05.272Z,97845.16
2023-01-29T12:17:37.616Z,97847.78
2023-01-29T12:20:13.234Z,97839.91
2023-01-29T12:22:56.434Z,97848.63
2023-01-29T12:25:40.918Z,97838.28
2023-01-29T12:28:28.780Z,97837.44
2023-01-29T12:31:13.751Z,97829.59
2023-01-29T12:34:20.140Z,97832.16
2023-01-29T12:37:03.391Z,97831.31
2023-01-29T12:39:35.327Z,97835.63
2023-01-29T12:42:09.287Z,97828.75
2023-01-29T12:44:45.157Z,97831.41
2023-01-29T12:47:36.643Z,97832.25
2023-01-29T12:50:26.486Z,97825.34
2023-01-29T12:52:56.316Z,97825.31
2023-01-29T12:55:28.080Z,97826.19
2023-01-29T12:58:00.798Z,97829.72
2023-01-29T13:00:33.674Z,97829.75
2023-01-29T13:03:18.069Z,97819.38
2023-01-29T13:05:54.465Z,97821.97
2023-01-29T13:08:44.673Z,97828.94
2023-01-29T13:11:19.276Z,97829.81
2023-01-29T13:13:58.280Z,97826.38
2023-01-29T13:16:37.621Z,97827.25
2023-01-29T13:19:14.231Z,97828.13
2023-01-29T13:21:43.926Z,97819.47
2023-01-29T13:24:15.944Z,97824.66
2023-01-29T13:26:47.204Z,97816.84
2023-01-29T13:29:30.888Z,97822.91
2023-01-29T13:32:01.071Z,97827.28
2023-01-29T13:34:38.505Z,97824.69
2023-01-29T13:37:16.921Z,97835.09
2023-01-29T13:39:53.438Z,97827.31
2023-01-29T13:42:24.099Z,97826.41
2023-01-29T13:44:54.414Z,97835.09
2023-01-29T13:47:31.900Z,97841.13
2023-01-29T13:50:20.161Z,97848.06
2023-01-29T13:53:02.276Z,97848.94
2023-01-29T13:55:33.635Z,97848.94
2023-01-29T13:58:09.707Z,97848.06
2023-01-29T14:00:36.356Z,97843.75
2023-01-29T14:03:11.937Z,97851.53
2023-01-29T14:05:43.521Z,97846.34
2023-01-29T14:08:10.138Z,97848.94
2023-01-29T14:10:38.352Z,97848.06
2023-01-29T14:13:04.976Z,97857.59
2023-01-29T14:15:34.683Z,97850.66
2023-01-29T14:18:22.367Z,97847.19
2023-01-29T14:20:48.926Z,97850.66
2023-01-29T14:23:28.683Z,97854.97
2023-01-29T14:25:56.601Z,97848.94
2023-01-29T14:28:27.008Z,97848.91
2023-01-29T14:30:55.255Z,97849.78
2023-01-29T14:33:38.154Z,97846.34
2023-01-29T14:36:10.860Z,97853.25
2023-01-29T14:38:38.835Z,97855.81
2023-01-29T14:41:24.569Z,97848.03
2023-01-29T14:43:51.196Z,97855.81
2023-01-29T14:46:35.955Z,97860.16
2023-01-29T14:49:03.233Z,97853.22
2023-01-29T14:51:36.844Z,97856.66
2023-01-29T14:54:18.863Z,97850.59
2023-01-29T14:56:59.660Z,97862.75
2023-01-29T14:59:46.573Z,97864.44
2023-01-29T15:02:27.136Z,97859.22
2023-01-29T15:04:58.843Z,97866.16
2023-01-29T15:07:32.024Z,97858.38
2023-01-29T15:10:22.884Z,97858.38
2023-01-29T15:13:03.049Z,97855.75
2023-01-29T15:15:57.111Z,97863.53
2023-01-29T15:18:29.683Z,97859.19
2023-01-29T15:21:05.914Z,97865.28
2023-01-29T15:23:34.524Z,97866.13
2023-01-29T15:26:27.012Z,97872.16
2023-01-29T15:29:04.109Z,97864.38
2023-01-29T15:31:31.972Z,97870.44
2023-01-29T15:34:05.018Z,97872.16
2023-01-29T15:36:32.462Z,97872.16
2023-01-29T15:39:20.175Z,97870.44
2023-01-29T15:41:47.336Z,97867.00
2023-01-29T15:44:20.410Z,97873.03
2023-01-29T15:46:57.035Z,97874.75
2023-01-29T15:49:34.061Z,97874.78
2023-01-29T15:52:05.001Z,97883.41
2023-01-29T15:54:33.732Z,97891.16
2023-01-29T15:57:01.956Z,97891.22
2023-01-29T15:59:36.957Z,97886.84
2023-01-29T16:02:40.228Z,97891.19
2023-01-29T16:05:15.789Z,97892.91
2023-01-29T16:07:43.607Z,97887.72
2023-01-29T16:10:28.728Z,97886.00
2023-01-29T16:12:56.392Z,97887.72
2023-01-29T16:15:38.005Z,97895.50
2023-01-29T16:18:21.233Z,97892.06
2023-01-29T16:20:52.574Z,97896.34
2023-01-29T16:23:36.940Z,97891.16
2023-01-29T16:26:08.446Z,97885.09
2023-01-29T16:28:42.882Z,97887.72
2023-01-29T16:31:12.079Z,97889.44
2023-01-29T16:33:41.898Z,97891.19
2023-01-29T16:36:16.822Z,97886.84
2023-01-29T16:38:47.871Z,97890.28
2023-01-29T16:41:28.926Z,97884.25
2023-01-29T16:44:01.205Z,97888.56
2023-01-29T16:46:34.089Z,97882.53
2023-01-29T16:49:01.849Z,97883.38
2023-01-29T16:51:37.700Z,97886.84
2023-01-29T16:54:24.189Z,97882.53
2023-01-29T16:57:00.524Z,97881.66
2023-01-29T16:59:37.907Z,97891.16
2023-01-29T17:02:16.587Z,97890.28
2023-01-29T17:04:43.225Z,97883.38
2023-01-29T17:07:24.095Z,97887.66
2023-01-29T17:09:57.293Z,97873.84
2023-01-29T17:12:26.761Z,97892.00
2023-01-29T17:14:56.558Z,97879.00
2023-01-29T17:17:30.501Z,97884.19
2023-01-29T17:19:58.945Z,97878.16
2023-01-29T17:22:25.644Z,97886.78
2023-01-29T17:24:52.356Z,97878.19
2023-01-29T17:27:21.499Z,97874.72
2023-01-29T17:29:48.635Z,97870.38
2023-01-29T17:32:19.883Z,97871.25
2023-01-29T17:34:47.149Z,97866.03
2023-01-29T17:37:15.659Z,97868.66
2023-01-29T17:39:50.485Z,97866.09
2023-01-29T17:42:17.273Z,97868.69
2023-01-29T17:44:43.897Z,97868.69
2023-01-29T17:47:15.102Z,97873.88
2023-01-29T17:49:42.700Z,97868.66
2023-01-29T17:52:09.771Z,97860.00
2023-01-29T17:54:36.759Z,97865.19
2023-01-29T17:57:03.458Z,97864.31
2023-01-29T17:59:33.147Z,97865.22
2023-01-29T18:01:59.945Z,97862.59
2023-01-29T18:04:26.769Z,97858.28
2023-01-29T18:06:57.748Z,97860.84
2023-01-29T18:09:24.748Z,97857.41
2023-01-29T18:11:51.645Z,97853.97
2023-01-29T18:14:18.425Z,97849.66
2023-01-29T18:16:45.865Z,97852.22
2023-01-29T18:19:15.617Z,97861.72
2023-01-29T18:21:42.448Z,97863.47
2023-01-29T18:24:09.183Z,97860.88
2023-01-29T18:26:36.188Z,97858.28
2023-01-29T18:29:04.061Z,97863.38
2023-01-29T18:31:32.805Z,97867.75
2023-01-29T18:33:59.721Z,97860.84
2023-01-29T18:36:26.319Z,97859.97
2023-01-29T18:38:53.024Z,97861.69
2023-01-29T18:41:19.745Z,97865.97
2023-01-29T18:43:46.598Z,97877.28
2023-01-29T18:46:13.344Z,97885.00
2023-01-29T18:48:41.741Z,97880.59
2023-01-29T18:51:09.463Z,97881.53
2023-01-29T18:53:36.145Z,97888.44
2023-01-29T18:56:05.564Z,97892.78
2023-01-29T18:58:35.899Z,97895.34
2023-01-29T19:01:09.531Z,97895.28
2023-01-29T19:03:37.224Z,97897.00
2023-01-29T19:06:05.647Z,97894.50
2023-01-29T19:08:32.613Z,97901.38
2023-01-29T19:11:02.497Z,97904.00
2023-01-29T19:13:30.220Z,97903.13
2023-01-29T19:15:56.914Z,97909.19
2023-01-29T19:18:25.989Z,97915.25
2023-01-29T19:20:53.334Z,97915.25
2023-01-29T19:23:20.847Z,97922.97
2023-01-29T19:25:47.967Z,97922.97
2023-01-29T19:28:18.201Z,97922.94
2023-01-29T19:30:44.917Z,97920.38
2023-01-29T19:33:11.735Z,97925.50
2023-01-29T19:35:47.307Z,97928.94
2023-01-29T19:38:18.836Z,97928.94
2023-01-29T19:40:45.496Z,97925.53
2023-01-29T19:43:16.096Z,97928.09
2023-01-29T19:45:49.597Z,97920.34
2023-01-29T19:48:22.931Z,97923.81
2023-01-29T19:50:58.139Z,97929.91
2023-01-29T19:53:27.275Z,97928.97
2023-01-29T19:56:10.868Z,97935.88
2023-01-29T19:58:38.220Z,97928.09
2023-01-29T20:01:07.840Z,97928.09
2023-01-29T20:03:34.636Z,97934.94
2023-01-29T20:06:05.648Z,97935.00
2023-01-29T20:08:33.778Z,97931.56
2023-01-29T20:11:00.673Z,97929.81
2023-01-29T20:13:28.370Z,97930.69
2023-01-29T20:15:55.701Z,97940.16
2023-01-29T20:18:22.352Z,97942.75
2023-01-29T20:20:50.629Z,97941.03
2023-01-29T20:23:35.299Z,97936.75
2023-01-29T20:26:04.801Z,97935.84
2023-01-29T20:28:31.378Z,97943.59
2023-01-29T20:30:59.088Z,97939.31
2023-01-29T20:33:26.760Z,97946.16
2023-01-29T20:35:58.228Z,97937.56
2023-01-29T20:38:30.303Z,97947.91
2023-01-29T20:41:29.526Z,97945.31
2023-01-29T20:43:56.197Z,97946.13
2023-01-29T20:46:22.869Z,97945.19
2023-01-29T20:48:53.185Z,97940.91
2023-01-29T20:51:20.172Z,97943.50
2023-01-29T20:53:48.053Z,97939.16
2023-01-29T20:56:16.227Z,97940.06
2023-01-29T20:58:43.178Z,97938.31
2023-01-29T21:01:12.956Z,97933.94
2023-01-29T21:03:40.366Z,97932.28
2023-01-29T21:06:11.459Z,97936.56
2023-01-29T21:08:39.102Z,97932.19
2023-01-29T21:11:07.860Z,97929.59
2023-01-29T21:13:35.247Z,97936.53
2023-01-29T21:16:02.428Z,97939.16
2023-01-29T21:18:29.512Z,97934.72
2023-01-29T21:20:56.491Z,97936.53
2023-01-29T21:23:23.208Z,97927.84
2023-01-29T21:25:49.835Z,97930.47
2023-01-29T21:28:16.514Z,97924.38
2023-01-29T21:30:43.241Z,97922.66
2023-01-29T21:33:09.907Z,97926.09
2023-01-29T21:35:37.924Z,97920.06
2023-01-29T21:38:05.010Z,97919.16
2023-01-29T21:40:31.996Z,97917.44
2023-01-29T21:43:15.445Z,97914.84
2023-01-29T21:45:43.019Z,97912.25
2023-01-29T21:48:11.600Z,97907.94
2023-01-29T21:50:38.732Z,97907.94
2023-01-29T21:53:05.431Z,97904.50
2023-01-29T21:55:32.865Z,97898.41
2023-01-29T21:58:00.379Z,97896.75
2023-01-29T22:00:27.444Z,97893.31
2023-01-29T22:02:54.220Z,97891.53
2023-01-29T22:05:22.255Z,97895.03
2023-01-29T22:07:49.962Z,97886.38
2023-01-29T22:10:18.280Z,97886.34
2023-01-29T22:12:45.405Z,97881.19
2023-01-29T22:15:13.156Z,97877.75
2023-01-29T22:17:41.450Z,97874.28
2023-01-29T22:20:12.622Z,97874.28
2023-01-29T22:22:39.354Z,97869.97
2023-01-29T22:25:06.382Z,97876.84
2023-01-29T22:27:33.923Z,97882.00
2023-01-29T22:30:00.883Z,97882.88
2023-01-29T22:32:27.621Z,97876.78
2023-01-29T22:34:54.304Z,97882.00
2023-01-29T22:37:20.968Z,97875.16
2023-01-29T22:39:47.649Z,97876.88
2023-01-29T22:42:14.371Z,97880.28
2023-01-29T22:44:41.455Z,97878.59
2023-01-29T22:47:08.088Z,97871.63
2023-01-29T22:49:34.772Z,97865.53
2023-01-29T22:52:10.334Z,97871.56
2023-01-29T22:54:42.313Z,97871.63
2023-01-29T22:57:11.575Z,97873.41
2023-01-29T22:59:38.575Z,97875.13
2023-01-29T23:02:06.070Z,97870.72
2023-01-29T23:04:32.828Z,97870.69
2023-01-29T23:06:59.681Z,97873.25
2023-01-29T23:09:27.130Z,97866.47
2023-01-29T23:11:53.772Z,97864.75
2023-01-29T23:14:20.488Z,97863.03
2023-01-29T23:16:47.100Z,97859.56
2023-01-29T23:19:13.900Z,97865.59
2023-01-29T23:21:43.711Z,97859.53
2023-01-29T23:24:10.778Z,97855.19
2023-01-29T23:26:56.086Z,97854.34
2023-01-29T23:29:23.078Z,97856.06
2023-01-29T23:31:49.921Z,97851.75
2023-01-29T23:34:16.735Z,97856.88
2023-01-29T23:36:43.537Z,97844.78
2023-01-29T23:39:10.536Z,97849.94
2023-01-29T23:41:37.164Z,97853.44
2023-01-29T23:44:04.761Z,97852.47
2023-01-29T23:46:31.670Z,97852.59
2023-01-29T23:48:58.442Z,97858.63
2023-01-29T23:51:25.221Z,97853.41
2023-01-29T23:53:51.877Z,97849.03
2023-01-29T23:56:18.601Z,97849.03
2023-01-29T23:58:45.815Z,97851.63
